sensor_id;sensor_type;location;lat;lon;timestamp;P1;durP1;ratioP1;P2;durP2;ratioP2
21624;SDS011;10974;51.034;3.744;2022-09-16T00:01:15;2.10;;;1.10;;
21624;SDS011;10974;51.034;3.744;2022-09-16T00:03:42;3.27;;;1.17;;
21624;SDS011;10974;51.034;3.744;2022-09-16T00:06:19;1.07;;;0.90;;
21624;SDS011;10974;51.034;3.744;2022-09-16T00:08:47;1.30;;;1.07;;
21624;SDS011;10974;51.034;3.744;2022-09-16T00:11:13;1.80;;;1.23;;
21624;SDS011;10974;51.034;3.744;2022-09-16T00:13:39;1.00;;;0.90;;
21624;SDS011;10974;51.034;3.744;2022-09-16T00:16:06;1.17;;;0.97;;
21624;SDS011;10974;51.034;3.744;2022-09-16T00:18:33;1.10;;;0.90;;
21624;SDS011;10974;51.034;3.744;2022-09-16T00:20:59;1.20;;;0.97;;
21624;SDS011;10974;51.034;3.744;2022-09-16T00:23:24;2.20;;;1.20;;
21624;SDS011;10974;51.034;3.744;2022-09-16T00:25:50;1.83;;;0.90;;
21624;SDS011;10974;51.034;3.744;2022-09-16T00:28:17;1.40;;;1.10;;
21624;SDS011;10974;51.034;3.744;2022-09-16T00:30:44;2.50;;;1.00;;
21624;SDS011;10974;51.034;3.744;2022-09-16T00:33:09;1.13;;;1.00;;
21624;SDS011;10974;51.034;3.744;2022-09-16T00:35:35;1.10;;;1.00;;
21624;SDS011;10974;51.034;3.744;2022-09-16T00:38:00;1.10;;;0.90;;
21624;SDS011;10974;51.034;3.744;2022-09-16T00:40:26;2.23;;;0.90;;
21624;SDS011;10974;51.034;3.744;2022-09-16T00:42:52;1.37;;;1.10;;
21624;SDS011;10974;51.034;3.744;2022-09-16T00:45:21;1.43;;;1.00;;
21624;SDS011;10974;51.034;3.744;2022-09-16T00:47:58;1.73;;;1.00;;
21624;SDS011;10974;51.034;3.744;2022-09-16T00:50:36;1.67;;;0.80;;
21624;SDS011;10974;51.034;3.744;2022-09-16T00:53:08;2.53;;;1.10;;
21624;SDS011;10974;51.034;3.744;2022-09-16T00:55:38;1.87;;;1.10;;
21624;SDS011;10974;51.034;3.744;2022-09-16T00:58:19;1.43;;;1.00;;
21624;SDS011;10974;51.034;3.744;2022-09-16T01:00:55;3.30;;;1.60;;
21624;SDS011;10974;51.034;3.744;2022-09-16T01:03:20;2.97;;;1.40;;
21624;SDS011;10974;51.034;3.744;2022-09-16T01:05:47;5.50;;;1.60;;
21624;SDS011;10974;51.034;3.744;2022-09-16T01:08:14;2.90;;;1.40;;
21624;SDS011;10974;51.034;3.744;2022-09-16T01:10:40;3.50;;;1.50;;
21624;SDS011;10974;51.034;3.744;2022-09-16T01:13:07;2.03;;;1.30;;
21624;SDS011;10974;51.034;3.744;2022-09-16T01:18:30;5.20;;;1.60;;
21624;SDS011;10974;51.034;3.744;2022-09-16T01:29:38;3.00;;;1.30;;
21624;SDS011;10974;51.034;3.744;2022-09-16T01:55:00;3.30;;;1.77;;
21624;SDS011;10974;51.034;3.744;2022-09-16T01:57:39;9.40;;;1.90;;
21624;SDS011;10974;51.034;3.744;2022-09-16T02:00:13;3.63;;;1.50;;
21624;SDS011;10974;51.034;3.744;2022-09-16T02:02:55;4.03;;;1.70;;
21624;SDS011;10974;51.034;3.744;2022-09-16T02:11:04;4.90;;;1.87;;
21624;SDS011;10974;51.034;3.744;2022-09-16T02:13:34;2.07;;;1.50;;
21624;SDS011;10974;51.034;3.744;2022-09-16T02:16:04;4.73;;;1.93;;
21624;SDS011;10974;51.034;3.744;2022-09-16T02:18:38;4.00;;;1.60;;
21624;SDS011;10974;51.034;3.744;2022-09-16T02:21:06;4.07;;;1.57;;
21624;SDS011;10974;51.034;3.744;2022-09-16T02:23:38;3.30;;;1.70;;
21624;SDS011;10974;51.034;3.744;2022-09-16T02:26:09;2.53;;;1.33;;
21624;SDS011;10974;51.034;3.744;2022-09-16T02:28:38;4.00;;;1.50;;
21624;SDS011;10974;51.034;3.744;2022-09-16T02:31:07;3.00;;;1.80;;
21624;SDS011;10974;51.034;3.744;2022-09-16T02:33:36;1.97;;;1.20;;
21624;SDS011;10974;51.034;3.744;2022-09-16T02:36:10;5.43;;;1.80;;
21624;SDS011;10974;51.034;3.744;2022-09-16T02:38:40;4.63;;;1.40;;
21624;SDS011;10974;51.034;3.744;2022-09-16T02:41:09;4.40;;;1.40;;
21624;SDS011;10974;51.034;3.744;2022-09-16T02:43:41;5.70;;;1.40;;
21624;SDS011;10974;51.034;3.744;2022-09-16T02:46:18;3.37;;;1.30;;
21624;SDS011;10974;51.034;3.744;2022-09-16T02:52:03;2.80;;;1.50;;
21624;SDS011;10974;51.034;3.744;2022-09-16T02:54:42;2.50;;;1.50;;
21624;SDS011;10974;51.034;3.744;2022-09-16T02:57:27;5.03;;;1.50;;
21624;SDS011;10974;51.034;3.744;2022-09-16T02:59:53;3.53;;;1.33;;
21624;SDS011;10974;51.034;3.744;2022-09-16T03:02:19;4.57;;;1.30;;
21624;SDS011;10974;51.034;3.744;2022-09-16T03:04:45;3.70;;;1.53;;
21624;SDS011;10974;51.034;3.744;2022-09-16T03:07:11;2.40;;;1.70;;
21624;SDS011;10974;51.034;3.744;2022-09-16T03:09:38;7.73;;;1.63;;
21624;SDS011;10974;51.034;3.744;2022-09-16T03:12:14;3.50;;;1.60;;
21624;SDS011;10974;51.034;3.744;2022-09-16T03:18:04;2.13;;;1.43;;
21624;SDS011;10974;51.034;3.744;2022-09-16T03:21:39;6.90;;;1.57;;
21624;SDS011;10974;51.034;3.744;2022-09-16T03:26:32;2.20;;;1.60;;
21624;SDS011;10974;51.034;3.744;2022-09-16T03:34:30;3.37;;;1.70;;
21624;SDS011;10974;51.034;3.744;2022-09-16T03:37:04;6.90;;;1.80;;
21624;SDS011;10974;51.034;3.744;2022-09-16T03:39:32;5.67;;;1.83;;
21624;SDS011;10974;51.034;3.744;2022-09-16T03:41:59;6.30;;;1.80;;
21624;SDS011;10974;51.034;3.744;2022-09-16T03:44:35;3.77;;;1.60;;
21624;SDS011;10974;51.034;3.744;2022-09-16T03:47:03;3.03;;;1.60;;
21624;SDS011;10974;51.034;3.744;2022-09-16T03:49:29;2.73;;;1.60;;
21624;SDS011;10974;51.034;3.744;2022-09-16T03:51:56;2.43;;;1.40;;
21624;SDS011;10974;51.034;3.744;2022-09-16T03:54:22;6.50;;;1.90;;
21624;SDS011;10974;51.034;3.744;2022-09-16T03:56:48;8.53;;;1.80;;
21624;SDS011;10974;51.034;3.744;2022-09-16T03:59:14;5.63;;;1.50;;
21624;SDS011;10974;51.034;3.744;2022-09-16T04:01:39;2.80;;;1.67;;
21624;SDS011;10974;51.034;3.744;2022-09-16T04:04:05;3.00;;;1.40;;
21624;SDS011;10974;51.034;3.744;2022-09-16T04:06:31;2.90;;;1.40;;
21624;SDS011;10974;51.034;3.744;2022-09-16T04:08:56;2.43;;;1.30;;
21624;SDS011;10974;51.034;3.744;2022-09-16T04:11:24;3.67;;;1.30;;
21624;SDS011;10974;51.034;3.744;2022-09-16T04:13:53;2.03;;;1.60;;
21624;SDS011;10974;51.034;3.744;2022-09-16T04:16:19;5.50;;;1.60;;
21624;SDS011;10974;51.034;3.744;2022-09-16T04:18:45;2.90;;;1.17;;
21624;SDS011;10974;51.034;3.744;2022-09-16T04:21:11;3.23;;;1.33;;
21624;SDS011;10974;51.034;3.744;2022-09-16T04:23:37;1.53;;;1.10;;
21624;SDS011;10974;51.034;3.744;2022-09-16T04:26:03;2.77;;;1.20;;
21624;SDS011;10974;51.034;3.744;2022-09-16T04:28:29;2.73;;;1.20;;
21624;SDS011;10974;51.034;3.744;2022-09-16T04:30:59;2.67;;;1.00;;
21624;SDS011;10974;51.034;3.744;2022-09-16T04:33:27;3.70;;;1.10;;
21624;SDS011;10974;51.034;3.744;2022-09-16T04:36:00;5.50;;;1.30;;
21624;SDS011;10974;51.034;3.744;2022-09-16T04:38:29;2.10;;;1.00;;
21624;SDS011;10974;51.034;3.744;2022-09-16T04:41:06;3.10;;;1.10;;
21624;SDS011;10974;51.034;3.744;2022-09-16T04:43:36;1.33;;;0.80;;
21624;SDS011;10974;51.034;3.744;2022-09-16T04:46:02;1.10;;;1.00;;
21624;SDS011;10974;51.034;3.744;2022-09-16T04:48:28;2.10;;;1.20;;
21624;SDS011;10974;51.034;3.744;2022-09-16T04:50:59;3.00;;;1.00;;
21624;SDS011;10974;51.034;3.744;2022-09-16T04:53:29;3.77;;;1.13;;
21624;SDS011;10974;51.034;3.744;2022-09-16T04:56:01;2.40;;;0.90;;
21624;SDS011;10974;51.034;3.744;2022-09-16T04:58:48;2.67;;;0.90;;
21624;SDS011;10974;51.034;3.744;2022-09-16T05:01:20;5.03;;;1.03;;
21624;SDS011;10974;51.034;3.744;2022-09-16T05:03:49;2.43;;;1.00;;
21624;SDS011;10974;51.034;3.744;2022-09-16T05:06:20;2.33;;;1.10;;
21624;SDS011;10974;51.034;3.744;2022-09-16T05:08:48;2.10;;;1.20;;
21624;SDS011;10974;51.034;3.744;2022-09-16T05:11:19;2.47;;;1.10;;
21624;SDS011;10974;51.034;3.744;2022-09-16T05:13:49;2.90;;;1.43;;
21624;SDS011;10974;51.034;3.744;2022-09-16T05:16:17;1.67;;;1.10;;
21624;SDS011;10974;51.034;3.744;2022-09-16T05:18:44;5.40;;;1.40;;
21624;SDS011;10974;51.034;3.744;2022-09-16T05:21:13;1.53;;;0.90;;
21624;SDS011;10974;51.034;3.744;2022-09-16T05:23:43;4.30;;;1.10;;
21624;SDS011;10974;51.034;3.744;2022-09-16T05:26:11;1.17;;;1.00;;
21624;SDS011;10974;51.034;3.744;2022-09-16T05:28:39;3.73;;;1.10;;
21624;SDS011;10974;51.034;3.744;2022-09-16T05:31:18;2.80;;;1.10;;
21624;SDS011;10974;51.034;3.744;2022-09-16T05:36:24;2.50;;;1.10;;
21624;SDS011;10974;51.034;3.744;2022-09-16T05:38:52;3.87;;;1.13;;
21624;SDS011;10974;51.034;3.744;2022-09-16T05:41:18;3.07;;;1.40;;
21624;SDS011;10974;51.034;3.744;2022-09-16T05:43:44;1.67;;;1.20;;
21624;SDS011;10974;51.034;3.744;2022-09-16T05:46:11;3.60;;;1.20;;
21624;SDS011;10974;51.034;3.744;2022-09-16T05:48:41;3.87;;;1.13;;
21624;SDS011;10974;51.034;3.744;2022-09-16T05:51:08;3.20;;;1.43;;
21624;SDS011;10974;51.034;3.744;2022-09-16T05:53:35;2.40;;;1.17;;
21624;SDS011;10974;51.034;3.744;2022-09-16T05:56:02;1.33;;;1.00;;
21624;SDS011;10974;51.034;3.744;2022-09-16T05:58:30;2.90;;;1.20;;
21624;SDS011;10974;51.034;3.744;2022-09-16T06:01:01;4.47;;;1.87;;
21624;SDS011;10974;51.034;3.744;2022-09-16T06:03:32;7.17;;;1.43;;
21624;SDS011;10974;51.034;3.744;2022-09-16T06:06:06;6.80;;;1.63;;
21624;SDS011;10974;51.034;3.744;2022-09-16T06:08:36;8.17;;;1.50;;
21624;SDS011;10974;51.034;3.744;2022-09-16T06:11:04;5.33;;;1.40;;
21624;SDS011;10974;51.034;3.744;2022-09-16T06:13:31;7.67;;;1.50;;
21624;SDS011;10974;51.034;3.744;2022-09-16T06:15:57;15.77;;;1.30;;
21624;SDS011;10974;51.034;3.744;2022-09-16T06:18:24;7.67;;;1.27;;
21624;SDS011;10974;51.034;3.744;2022-09-16T06:20:51;2.50;;;1.27;;
21624;SDS011;10974;51.034;3.744;2022-09-16T06:23:17;4.17;;;1.27;;
21624;SDS011;10974;51.034;3.744;2022-09-16T06:25:43;6.70;;;1.40;;
21624;SDS011;10974;51.034;3.744;2022-09-16T06:28:09;2.33;;;1.20;;
21624;SDS011;10974;51.034;3.744;2022-09-16T06:30:38;2.73;;;1.17;;
21624;SDS011;10974;51.034;3.744;2022-09-16T06:33:05;8.10;;;1.10;;
21624;SDS011;10974;51.034;3.744;2022-09-16T06:35:32;3.33;;;1.80;;
21624;SDS011;10974;51.034;3.744;2022-09-16T06:37:59;1.17;;;0.90;;
21624;SDS011;10974;51.034;3.744;2022-09-16T06:40:25;1.00;;;1.00;;
21624;SDS011;10974;51.034;3.744;2022-09-16T06:42:53;0.83;;;0.83;;
21624;SDS011;10974;51.034;3.744;2022-09-16T06:45:20;1.47;;;0.90;;
21624;SDS011;10974;51.034;3.744;2022-09-16T06:47:46;1.70;;;1.10;;
21624;SDS011;10974;51.034;3.744;2022-09-16T06:50:11;1.40;;;0.90;;
21624;SDS011;10974;51.034;3.744;2022-09-16T06:52:37;3.67;;;0.87;;
21624;SDS011;10974;51.034;3.744;2022-09-16T06:55:03;1.83;;;0.90;;
21624;SDS011;10974;51.034;3.744;2022-09-16T06:57:29;1.43;;;0.70;;
21624;SDS011;10974;51.034;3.744;2022-09-16T06:59:55;0.93;;;0.80;;
21624;SDS011;10974;51.034;3.744;2022-09-16T07:02:21;0.93;;;0.80;;
21624;SDS011;10974;51.034;3.744;2022-09-16T07:04:47;1.90;;;0.77;;
21624;SDS011;10974;51.034;3.744;2022-09-16T07:07:13;1.43;;;0.73;;
21624;SDS011;10974;51.034;3.744;2022-09-16T07:09:39;1.40;;;0.80;;
21624;SDS011;10974;51.034;3.744;2022-09-16T07:12:05;1.33;;;0.90;;
21624;SDS011;10974;51.034;3.744;2022-09-16T07:14:31;0.70;;;0.70;;
21624;SDS011;10974;51.034;3.744;2022-09-16T07:16:57;0.87;;;0.70;;
21624;SDS011;10974;51.034;3.744;2022-09-16T07:19:23;0.73;;;0.70;;
21624;SDS011;10974;51.034;3.744;2022-09-16T07:21:49;1.53;;;0.80;;
21624;SDS011;10974;51.034;3.744;2022-09-16T07:24:15;0.87;;;0.80;;
21624;SDS011;10974;51.034;3.744;2022-09-16T07:26:41;0.70;;;0.60;;
21624;SDS011;10974;51.034;3.744;2022-09-16T07:29:09;0.80;;;0.80;;
21624;SDS011;10974;51.034;3.744;2022-09-16T07:31:40;0.50;;;0.50;;
21624;SDS011;10974;51.034;3.744;2022-09-16T07:34:06;0.90;;;0.60;;
21624;SDS011;10974;51.034;3.744;2022-09-16T07:36:35;0.60;;;0.60;;
21624;SDS011;10974;51.034;3.744;2022-09-16T07:39:11;0.60;;;0.60;;
21624;SDS011;10974;51.034;3.744;2022-09-16T07:41:39;1.07;;;0.70;;
21624;SDS011;10974;51.034;3.744;2022-09-16T07:44:07;0.80;;;0.70;;
21624;SDS011;10974;51.034;3.744;2022-09-16T07:46:35;1.00;;;0.70;;
21624;SDS011;10974;51.034;3.744;2022-09-16T07:49:02;0.60;;;0.60;;
21624;SDS011;10974;51.034;3.744;2022-09-16T07:51:30;0.60;;;0.60;;
21624;SDS011;10974;51.034;3.744;2022-09-16T07:53:58;0.70;;;0.70;;
21624;SDS011;10974;51.034;3.744;2022-09-16T07:56:28;0.70;;;0.70;;
21624;SDS011;10974;51.034;3.744;2022-09-16T07:58:58;0.60;;;0.60;;
21624;SDS011;10974;51.034;3.744;2022-09-16T08:01:24;0.60;;;0.60;;
21624;SDS011;10974;51.034;3.744;2022-09-16T08:03:50;0.70;;;0.70;;
21624;SDS011;10974;51.034;3.744;2022-09-16T08:06:20;0.70;;;0.60;;
21624;SDS011;10974;51.034;3.744;2022-09-16T08:08:47;1.73;;;0.70;;
21624;SDS011;10974;51.034;3.744;2022-09-16T08:11:15;0.60;;;0.60;;
21624;SDS011;10974;51.034;3.744;2022-09-16T08:13:41;0.60;;;0.60;;
21624;SDS011;10974;51.034;3.744;2022-09-16T08:16:10;0.70;;;0.70;;
21624;SDS011;10974;51.034;3.744;2022-09-16T08:18:37;0.90;;;0.90;;
21624;SDS011;10974;51.034;3.744;2022-09-16T08:21:07;0.80;;;0.67;;
21624;SDS011;10974;51.034;3.744;2022-09-16T08:23:34;0.87;;;0.77;;
21624;SDS011;10974;51.034;3.744;2022-09-16T08:26:00;1.30;;;0.70;;
21624;SDS011;10974;51.034;3.744;2022-09-16T08:28:27;3.10;;;1.00;;
21624;SDS011;10974;51.034;3.744;2022-09-16T08:30:53;2.90;;;1.10;;
21624;SDS011;10974;51.034;3.744;2022-09-16T08:33:22;1.37;;;0.90;;
21624;SDS011;10974;51.034;3.744;2022-09-16T08:38:34;1.03;;;0.90;;
21624;SDS011;10974;51.034;3.744;2022-09-16T08:46:06;6.20;;;1.20;;
21624;SDS011;10974;51.034;3.744;2022-09-16T08:48:46;2.63;;;0.90;;
21624;SDS011;10974;51.034;3.744;2022-09-16T08:51:22;3.37;;;1.13;;
21624;SDS011;10974;51.034;3.744;2022-09-16T08:53:50;3.00;;;1.00;;
21624;SDS011;10974;51.034;3.744;2022-09-16T08:56:19;46.20;;;2.10;;
21624;SDS011;10974;51.034;3.744;2022-09-16T08:58:49;2.43;;;1.40;;
21624;SDS011;10974;51.034;3.744;2022-09-16T09:03:58;45.13;;;1.83;;
21624;SDS011;10974;51.034;3.744;2022-09-16T09:12:14;2.10;;;1.07;;
21624;SDS011;10974;51.034;3.744;2022-09-16T09:20:34;46.87;;;2.03;;
21624;SDS011;10974;51.034;3.744;2022-09-16T09:26:32;2.30;;;0.90;;
21624;SDS011;10974;51.034;3.744;2022-09-16T09:29:49;0.90;;;0.80;;
21624;SDS011;10974;51.034;3.744;2022-09-16T09:38:31;1.77;;;0.80;;
21624;SDS011;10974;51.034;3.744;2022-09-16T09:40:45;6.63;;;0.90;;
21624;SDS011;10974;51.034;3.744;2022-09-16T09:43:17;0.70;;;0.70;;
21624;SDS011;10974;51.034;3.744;2022-09-16T09:45:50;1.23;;;1.00;;
21624;SDS011;10974;51.034;3.744;2022-09-16T09:51:21;1.40;;;0.87;;
21624;SDS011;10974;51.034;3.744;2022-09-16T09:53:55;0.70;;;0.70;;
21624;SDS011;10974;51.034;3.744;2022-09-16T09:56:37;0.70;;;0.70;;
21624;SDS011;10974;51.034;3.744;2022-09-16T09:59:15;2.90;;;1.23;;
21624;SDS011;10974;51.034;3.744;2022-09-16T10:01:52;2.70;;;1.30;;
21624;SDS011;10974;51.034;3.744;2022-09-16T10:04:19;3.90;;;1.40;;
21624;SDS011;10974;51.034;3.744;2022-09-16T10:06:44;1.63;;;1.10;;
21624;SDS011;10974;51.034;3.744;2022-09-16T10:09:13;2.90;;;1.30;;
21624;SDS011;10974;51.034;3.744;2022-09-16T10:14:21;2.83;;;1.10;;
21624;SDS011;10974;51.034;3.744;2022-09-16T10:17:03;3.77;;;1.20;;
21624;SDS011;10974;51.034;3.744;2022-09-16T10:19:30;3.50;;;1.20;;
21624;SDS011;10974;51.034;3.744;2022-09-16T10:22:10;3.57;;;1.20;;
21624;SDS011;10974;51.034;3.744;2022-09-16T10:25:02;3.37;;;1.50;;
21624;SDS011;10974;51.034;3.744;2022-09-16T10:27:35;2.77;;;1.10;;
21624;SDS011;10974;51.034;3.744;2022-09-16T10:30:15;4.13;;;1.20;;
21624;SDS011;10974;51.034;3.744;2022-09-16T10:35:36;4.17;;;1.30;;
21624;SDS011;10974;51.034;3.744;2022-09-16T10:40:30;3.30;;;1.10;;
21624;SDS011;10974;51.034;3.744;2022-09-16T10:43:00;1.40;;;1.03;;
21624;SDS011;10974;51.034;3.744;2022-09-16T10:45:33;2.70;;;1.33;;
21624;SDS011;10974;51.034;3.744;2022-09-16T10:48:03;4.40;;;1.33;;
21624;SDS011;10974;51.034;3.744;2022-09-16T10:50:35;1.80;;;1.13;;
21624;SDS011;10974;51.034;3.744;2022-09-16T10:53:01;5.43;;;1.43;;
21624;SDS011;10974;51.034;3.744;2022-09-16T10:55:28;3.67;;;1.20;;
21624;SDS011;10974;51.034;3.744;2022-09-16T10:58:05;2.37;;;1.30;;
21624;SDS011;10974;51.034;3.744;2022-09-16T11:00:35;2.77;;;1.33;;
21624;SDS011;10974;51.034;3.744;2022-09-16T11:09:22;2.83;;;1.37;;
21624;SDS011;10974;51.034;3.744;2022-09-16T11:12:13;6.63;;;1.43;;
21624;SDS011;10974;51.034;3.744;2022-09-16T11:15:01;1.47;;;1.10;;
21624;SDS011;10974;51.034;3.744;2022-09-16T11:20:33;1.77;;;1.27;;
21624;SDS011;10974;51.034;3.744;2022-09-16T11:26:03;3.07;;;1.20;;
21624;SDS011;10974;51.034;3.744;2022-09-16T11:39:57;3.93;;;1.27;;
21624;SDS011;10974;51.034;3.744;2022-09-16T11:42:40;2.17;;;1.20;;
21624;SDS011;10974;51.034;3.744;2022-09-16T11:56:19;2.90;;;1.10;;
21624;SDS011;10974;51.034;3.744;2022-09-16T11:59:10;3.80;;;1.27;;
21624;SDS011;10974;51.034;3.744;2022-09-16T12:02:23;4.20;;;1.40;;
21624;SDS011;10974;51.034;3.744;2022-09-16T12:07:46;2.90;;;1.17;;
21624;SDS011;10974;51.034;3.744;2022-09-16T12:10:27;3.80;;;1.10;;
21624;SDS011;10974;51.034;3.744;2022-09-16T12:13:04;4.33;;;1.30;;
21624;SDS011;10974;51.034;3.744;2022-09-16T12:18:18;3.23;;;1.40;;
21624;SDS011;10974;51.034;3.744;2022-09-16T12:20:50;6.27;;;1.20;;
21624;SDS011;10974;51.034;3.744;2022-09-16T12:23:42;4.47;;;1.73;;
21624;SDS011;10974;51.034;3.744;2022-09-16T12:26:14;2.23;;;1.10;;
21624;SDS011;10974;51.034;3.744;2022-09-16T12:29:05;3.37;;;1.30;;
21624;SDS011;10974;51.034;3.744;2022-09-16T12:31:58;4.87;;;1.80;;
21624;SDS011;10974;51.034;3.744;2022-09-16T12:34:34;5.90;;;1.63;;
21624;SDS011;10974;51.034;3.744;2022-09-16T12:39:50;5.43;;;1.40;;
21624;SDS011;10974;51.034;3.744;2022-09-16T12:47:46;2.03;;;1.30;;
21624;SDS011;10974;51.034;3.744;2022-09-16T12:51:02;3.53;;;1.30;;
21624;SDS011;10974;51.034;3.744;2022-09-16T12:56:19;2.23;;;1.23;;
21624;SDS011;10974;51.034;3.744;2022-09-16T13:01:55;1.83;;;1.00;;
21624;SDS011;10974;51.034;3.744;2022-09-16T13:04:29;5.13;;;1.57;;
21624;SDS011;10974;51.034;3.744;2022-09-16T13:07:02;3.10;;;1.33;;
21624;SDS011;10974;51.034;3.744;2022-09-16T13:09:29;4.03;;;1.43;;
21624;SDS011;10974;51.034;3.744;2022-09-16T13:14:32;5.70;;;1.77;;
21624;SDS011;10974;51.034;3.744;2022-09-16T13:17:01;4.77;;;1.10;;
21624;SDS011;10974;51.034;3.744;2022-09-16T13:22:14;1.60;;;0.93;;
21624;SDS011;10974;51.034;3.744;2022-09-16T13:27:36;1.00;;;0.80;;
21624;SDS011;10974;51.034;3.744;2022-09-16T13:30:04;0.70;;;0.70;;
21624;SDS011;10974;51.034;3.744;2022-09-16T13:32:42;0.83;;;0.80;;
21624;SDS011;10974;51.034;3.744;2022-09-16T13:37:51;2.30;;;0.93;;
21624;SDS011;10974;51.034;3.744;2022-09-16T13:40:25;1.67;;;1.20;;
21624;SDS011;10974;51.034;3.744;2022-09-16T13:45:39;1.33;;;0.90;;
21624;SDS011;10974;51.034;3.744;2022-09-16T13:48:16;3.00;;;1.20;;
21624;SDS011;10974;51.034;3.744;2022-09-16T13:50:46;2.03;;;1.00;;
21624;SDS011;10974;51.034;3.744;2022-09-16T13:53:30;1.37;;;0.93;;
21624;SDS011;10974;51.034;3.744;2022-09-16T14:16:13;2.80;;;1.10;;
21624;SDS011;10974;51.034;3.744;2022-09-16T14:18:39;2.40;;;1.07;;
21624;SDS011;10974;51.034;3.744;2022-09-16T14:21:17;2.00;;;1.10;;
21624;SDS011;10974;51.034;3.744;2022-09-16T14:23:45;3.20;;;1.13;;
21624;SDS011;10974;51.034;3.744;2022-09-16T14:26:12;2.53;;;1.00;;
21624;SDS011;10974;51.034;3.744;2022-09-16T14:28:42;1.73;;;1.10;;
21624;SDS011;10974;51.034;3.744;2022-09-16T14:31:09;2.00;;;1.10;;
21624;SDS011;10974;51.034;3.744;2022-09-16T14:33:40;2.93;;;1.10;;
21624;SDS011;10974;51.034;3.744;2022-09-16T14:36:28;2.93;;;1.40;;
21624;SDS011;10974;51.034;3.744;2022-09-16T14:43:57;3.87;;;1.23;;
21624;SDS011;10974;51.034;3.744;2022-09-16T14:46:43;3.23;;;1.17;;
21624;SDS011;10974;51.034;3.744;2022-09-16T14:49:23;2.50;;;1.23;;
21624;SDS011;10974;51.034;3.744;2022-09-16T14:51:50;2.93;;;0.93;;
21624;SDS011;10974;51.034;3.744;2022-09-16T14:54:28;1.10;;;1.00;;
21624;SDS011;10974;51.034;3.744;2022-09-16T14:56:58;3.43;;;1.40;;
21624;SDS011;10974;51.034;3.744;2022-09-16T14:59:29;1.30;;;1.20;;
21624;SDS011;10974;51.034;3.744;2022-09-16T15:05:15;2.13;;;1.20;;
21624;SDS011;10974;51.034;3.744;2022-09-16T15:07:48;4.40;;;1.37;;
21624;SDS011;10974;51.034;3.744;2022-09-16T15:10:20;2.40;;;1.20;;
21624;SDS011;10974;51.034;3.744;2022-09-16T15:12:56;1.93;;;1.20;;
21624;SDS011;10974;51.034;3.744;2022-09-16T15:15:25;2.53;;;1.70;;
21624;SDS011;10974;51.034;3.744;2022-09-16T15:20:28;3.43;;;1.77;;
21624;SDS011;10974;51.034;3.744;2022-09-16T15:22:56;2.57;;;1.30;;
21624;SDS011;10974;51.034;3.744;2022-09-16T15:25:25;5.17;;;1.77;;
21624;SDS011;10974;51.034;3.744;2022-09-16T15:28:05;3.90;;;1.30;;
21624;SDS011;10974;51.034;3.744;2022-09-16T15:30:32;3.93;;;1.20;;
21624;SDS011;10974;51.034;3.744;2022-09-16T15:33:02;3.57;;;1.40;;
21624;SDS011;10974;51.034;3.744;2022-09-16T15:35:28;3.20;;;1.40;;
21624;SDS011;10974;51.034;3.744;2022-09-16T15:38:08;2.23;;;1.60;;
21624;SDS011;10974;51.034;3.744;2022-09-16T15:40:36;2.30;;;1.50;;
21624;SDS011;10974;51.034;3.744;2022-09-16T15:43:12;3.30;;;1.60;;
21624;SDS011;10974;51.034;3.744;2022-09-16T15:45:55;5.27;;;1.60;;
21624;SDS011;10974;51.034;3.744;2022-09-16T15:48:28;3.47;;;1.73;;
21624;SDS011;10974;51.034;3.744;2022-09-16T15:51:02;3.80;;;1.50;;
21624;SDS011;10974;51.034;3.744;2022-09-16T15:53:49;3.27;;;1.87;;
21624;SDS011;10974;51.034;3.744;2022-09-16T15:56:19;5.90;;;1.50;;
21624;SDS011;10974;51.034;3.744;2022-09-16T15:59:02;52.63;;;2.00;;
21624;SDS011;10974;51.034;3.744;2022-09-16T16:01:46;45.13;;;2.20;;
21624;SDS011;10974;51.034;3.744;2022-09-16T16:04:31;50.90;;;2.33;;
21624;SDS011;10974;51.034;3.744;2022-09-16T16:07:04;50.10;;;2.13;;
21624;SDS011;10974;51.034;3.744;2022-09-16T16:09:31;49.53;;;2.00;;
21624;SDS011;10974;51.034;3.744;2022-09-16T16:12:14;47.60;;;2.57;;
21624;SDS011;10974;51.034;3.744;2022-09-16T16:14:41;46.90;;;1.93;;
21624;SDS011;10974;51.034;3.744;2022-09-16T16:19:47;47.27;;;2.03;;
21624;SDS011;10974;51.034;3.744;2022-09-16T16:22:14;46.43;;;2.53;;
21624;SDS011;10974;51.034;3.744;2022-09-16T16:24:40;47.00;;;2.60;;
21624;SDS011;10974;51.034;3.744;2022-09-16T16:27:06;51.23;;;2.43;;
21624;SDS011;10974;51.034;3.744;2022-09-16T16:29:32;51.90;;;2.00;;
21624;SDS011;10974;51.034;3.744;2022-09-16T16:32:06;46.20;;;2.10;;
21624;SDS011;10974;51.034;3.744;2022-09-16T16:34:42;2.60;;;1.37;;
21624;SDS011;10974;51.034;3.744;2022-09-16T16:37:10;51.50;;;2.57;;
21624;SDS011;10974;51.034;3.744;2022-09-16T16:39:41;46.70;;;2.10;;
21624;SDS011;10974;51.034;3.744;2022-09-16T16:42:08;45.67;;;2.17;;
21624;SDS011;10974;51.034;3.744;2022-09-16T16:44:37;47.40;;;2.10;;
21624;SDS011;10974;51.034;3.744;2022-09-16T16:47:03;47.00;;;2.80;;
21624;SDS011;10974;51.034;3.744;2022-09-16T16:49:29;46.33;;;2.50;;
21624;SDS011;10974;51.034;3.744;2022-09-16T16:51:55;46.50;;;2.10;;
21624;SDS011;10974;51.034;3.744;2022-09-16T16:54:24;48.17;;;2.10;;
21624;SDS011;10974;51.034;3.744;2022-09-16T16:56:50;31.67;;;1.77;;
21624;SDS011;10974;51.034;3.744;2022-09-16T16:59:16;56.90;;;1.97;;
21624;SDS011;10974;51.034;3.744;2022-09-16T17:01:43;46.37;;;2.17;;
21624;SDS011;10974;51.034;3.744;2022-09-16T17:04:10;47.70;;;2.20;;
21624;SDS011;10974;51.034;3.744;2022-09-16T17:06:36;48.60;;;3.30;;
21624;SDS011;10974;51.034;3.744;2022-09-16T17:09:04;48.00;;;2.23;;
21624;SDS011;10974;51.034;3.744;2022-09-16T17:11:30;44.87;;;2.00;;
21624;SDS011;10974;51.034;3.744;2022-09-16T17:13:57;39.67;;;1.60;;
21624;SDS011;10974;51.034;3.744;2022-09-16T17:16:27;49.83;;;2.10;;
21624;SDS011;10974;51.034;3.744;2022-09-16T17:18:54;42.77;;;2.10;;
21624;SDS011;10974;51.034;3.744;2022-09-16T17:21:22;45.60;;;2.40;;
21624;SDS011;10974;51.034;3.744;2022-09-16T17:23:49;45.40;;;1.97;;
21624;SDS011;10974;51.034;3.744;2022-09-16T17:26:15;43.50;;;1.67;;
21624;SDS011;10974;51.034;3.744;2022-09-16T17:28:42;47.17;;;2.13;;
21624;SDS011;10974;51.034;3.744;2022-09-16T17:31:10;38.47;;;1.67;;
21624;SDS011;10974;51.034;3.744;2022-09-16T17:33:41;42.70;;;2.03;;
21624;SDS011;10974;51.034;3.744;2022-09-16T17:36:08;47.10;;;2.13;;
21624;SDS011;10974;51.034;3.744;2022-09-16T17:38:36;3.47;;;1.50;;
21624;SDS011;10974;51.034;3.744;2022-09-16T17:43:31;46.33;;;1.90;;
21624;SDS011;10974;51.034;3.744;2022-09-16T17:45:58;3.53;;;1.20;;
21624;SDS011;10974;51.034;3.744;2022-09-16T17:48:24;44.63;;;1.90;;
21624;SDS011;10974;51.034;3.744;2022-09-16T17:50:50;1.20;;;1.10;;
21624;SDS011;10974;51.034;3.744;2022-09-16T17:53:16;47.20;;;2.00;;
21624;SDS011;10974;51.034;3.744;2022-09-16T17:55:42;2.57;;;1.30;;
21624;SDS011;10974;51.034;3.744;2022-09-16T17:58:07;46.10;;;2.10;;
21624;SDS011;10974;51.034;3.744;2022-09-16T18:00:34;2.20;;;1.10;;
21624;SDS011;10974;51.034;3.744;2022-09-16T18:03:02;2.20;;;1.10;;
21624;SDS011;10974;51.034;3.744;2022-09-16T18:05:28;1.10;;;1.00;;
21624;SDS011;10974;51.034;3.744;2022-09-16T18:07:56;1.93;;;1.10;;
21624;SDS011;10974;51.034;3.744;2022-09-16T18:10:22;1.13;;;0.90;;
21624;SDS011;10974;51.034;3.744;2022-09-16T18:12:48;2.57;;;1.00;;
21624;SDS011;10974;51.034;3.744;2022-09-16T18:15:13;1.57;;;1.00;;
21624;SDS011;10974;51.034;3.744;2022-09-16T18:17:39;0.80;;;0.80;;
21624;SDS011;10974;51.034;3.744;2022-09-16T18:20:05;0.70;;;0.70;;
21624;SDS011;10974;51.034;3.744;2022-09-16T18:22:31;0.90;;;0.90;;
21624;SDS011;10974;51.034;3.744;2022-09-16T18:24:57;1.03;;;0.73;;
21624;SDS011;10974;51.034;3.744;2022-09-16T18:27:23;1.50;;;0.87;;
21624;SDS011;10974;51.034;3.744;2022-09-16T18:29:49;0.87;;;0.73;;